Hlavní strana
METAR-TAF:

METAR-TAF

Letiště :

Torsby, Švédsko

zeměpisná šířka: 60-09-17N, zeměpisná délka: 12-59-40E, výška: 120 m

Aktuální stav počasí

Zpráva byla vytvořena před 35 minutami, v 16:20 UTC
Severoseverovýchodní vítr 5 kt, proměnlivý mezi severním a východoseverovýchodním
Teplota 3°C
Vlhkost vzduchu 81%
Tlak 1042 hPa
Viditelnost 10 km a více

METAR: ESST 181620Z AUTO 03005KT 360V070 9999 OVC015/// 03/00 Q1042

Čas: 17:55 (16:55 UTC)


TAF: chybějící

Stav a předpovědi počasí z více než 4 000 letišť (zprávy METAR a TAF).

Červené a žluté tečky na mapě představují dostupné meteorologické stanice.

Když kurzor umístíte na tečku, zobrazí se název stanice.

Pak kliknutím zobrazíte stav a předpověď počasí.

Chcete-li změnit mapu, kliknutím na zelené tlačítko se znaménkem +mapu přiblížíte, kliknutím na zelené tlačítko se znaménkem – mapu oddálíte a kliknutím na zelené šipky přejdete na sousední mapy.


METAR-TAF: